Time;durP1;ratioP1;P1;durP2;ratioP2;P2;SDS_P1;SDS_P2;PMS_P1;PMS_P2;Temp;Humidity;BMP_temperature;BMP_pressure;BME280_temperature;BME280_humidity;BME280_pressure;Samples;Min_cycle;Max_cycle;Signal;HPM_P1;HPM_P2
2024/03/30 00:01:00;;;;;;;4.40;4.00;;;;;;;10.04;100.00;99495.16;108526;1250;76521;-62
2024/03/30 00:03:28;;;;;;;4.00;3.60;;;;;;;9.97;100.00;99491.79;108376;1252;69283;-63
2024/03/30 00:05:59;;;;;;;5.10;3.50;;;;;;;9.96;100.00;99491.29;108462;1252;73395;-62
2024/03/30 00:08:27;;;;;;;5.20;4.10;;;;;;;9.93;100.00;99490.73;108391;1252;60736;-62
2024/03/30 00:10:58;;;;;;;5.60;3.90;;;;;;;9.97;100.00;99498.61;108505;1250;59828;-62
2024/03/30 00:13:26;;;;;;;4.90;3.40;;;;;;;10.00;100.00;99503.56;108495;1250;75284;-62
2024/03/30 00:15:54;;;;;;;3.40;3.10;;;;;;;10.07;100.00;99499.77;108236;1253;69648;-63
2024/03/30 00:18:21;;;;;;;;;;;;;;;10.10;100.00;99501.38;108479;1250;74845;-63
2024/03/30 00:20:49;;;;;;;5.80;3.20;;;;;;;10.08;100.00;99500.59;108428;1250;61974;-62
2024/03/30 00:23:17;;;;;;;3.40;3.00;;;;;;;10.07;100.00;99502.73;108401;1250;60666;-63
2024/03/30 00:25:54;;;;;;;3.50;2.80;;;;;;;10.05;100.00;99502.45;108439;1252;74987;-62
2024/03/30 00:28:21;;;;;;;3.90;3.30;;;;;;;10.07;100.00;99496.58;108438;1250;70040;-62
2024/03/30 00:30:49;;;;;;;;;;;;;;;10.09;100.00;99497.23;108462;1252;72389;-64
2024/03/30 00:33:16;;;;;;;;;;;;;;;10.11;100.00;99498.35;108440;1252;62860;-64
2024/03/30 00:35:45;;;;;;;3.70;3.30;;;;;;;10.13;100.00;99501.59;108438;1250;59316;-63
2024/03/30 00:38:13;;;;;;;5.80;3.90;;;;;;;10.17;100.00;99508.61;108471;1250;74499;-63
2024/03/30 00:40:40;;;;;;;11.20;4.10;;;;;;;10.12;100.00;99512.86;108454;1250;68244;-62
2024/03/30 00:43:08;;;;;;;;;;;;;;;10.09;100.00;99517.88;108444;1251;72356;-62
2024/03/30 00:45:36;;;;;;;5.10;4.10;;;;;;;10.05;100.00;99522.27;108389;1251;60626;-62
2024/03/30 00:48:05;;;;;;;7.00;5.40;;;;;;;10.05;100.00;99519.11;108457;1251;59333;-62
2024/03/30 00:50:32;;;;;;;6.70;5.40;;;;;;;10.08;100.00;99517.95;108430;1250;74857;-62
2024/03/30 00:53:01;;;;;;;7.60;5.70;;;;;;;10.10;100.00;99519.75;108516;1251;70109;-61
2024/03/30 00:55:29;;;;;;;7.10;5.80;;;;;;;10.08;100.00;99526.52;108457;1250;72912;-64
2024/03/30 00:57:57;;;;;;;5.60;4.90;;;;;;;10.04;100.00;99531.58;108432;1250;60637;-63
2024/03/30 01:00:25;;;;;;;6.50;4.80;;;;;;;10.00;100.00;99528.61;108550;1250;59711;-63
2024/03/30 01:02:53;;;;;;;6.10;4.50;;;;;;;9.98;100.00;99531.14;108466;1250;74883;-63
2024/03/30 01:05:20;;;;;;;5.60;4.90;;;;;;;9.94;100.00;99526.23;108418;1250;69332;-63
2024/03/30 01:07:48;;;;;;;;;;;;;;;9.89;100.00;99524.14;108460;1250;72472;-63
2024/03/30 01:10:16;;;;;;;5.60;4.10;;;;;;;9.87;100.00;99519.67;108471;1252;60663;-63
2024/03/30 01:12:44;;;;;;;6.80;4.70;;;;;;;9.86;100.00;99518.34;108547;1250;59763;-63
2024/03/30 01:15:11;;;;;;;;;;;;;;;9.82;100.00;99521.46;108488;1251;73893;-63
2024/03/30 01:17:39;;;;;;;;;;;;;;;9.75;100.00;99521.08;108439;1251;68773;-62
2024/03/30 01:20:07;;;;;;;5.20;4.70;;;;;;;9.73;100.00;99521.64;108389;1250;74360;-63
2024/03/30 01:22:35;;;;;;;5.10;4.40;;;;;;;9.56;100.00;99526.54;108444;1251;59555;-63
2024/03/30 01:25:03;;;;;;;5.90;5.00;;;;;;;9.60;100.00;99527.96;108479;1250;59765;-62
2024/03/30 01:27:31;;;;;;;6.20;5.00;;;;;;;9.67;100.00;99525.74;108505;1250;74890;-63
2024/03/30 01:30:04;;;;;;;5.10;4.50;;;;;;;9.74;100.00;99529.67;108467;1250;69255;-62
2024/03/30 01:32:38;;;;;;;5.60;4.90;;;;;;;9.70;100.00;99531.26;108459;1251;71916;-63
2024/03/30 01:35:07;;;;;;;5.10;4.60;;;;;;;9.63;100.00;99533.11;108439;1250;60693;-63
2024/03/30 01:37:34;;;;;;;5.20;4.70;;;;;;;9.49;100.00;99530.85;108506;1250;59791;-63
2024/03/30 01:40:02;;;;;;;5.30;4.70;;;;;;;9.46;100.00;99534.30;108479;1250;73493;-63
2024/03/30 01:42:30;;;;;;;6.10;4.50;;;;;;;9.39;100.00;99530.93;108488;1250;69114;-62
2024/03/30 01:44:57;;;;;;;;;;;;;;;9.44;100.00;99530.38;108445;1252;72474;-63
2024/03/30 01:47:26;;;;;;;4.80;4.30;;;;;;;9.45;100.00;99534.17;108431;1250;60964;-63
2024/03/30 01:49:55;;;;;;;5.20;4.70;;;;;;;9.48;100.00;99537.72;108483;1250;60523;-63
2024/03/30 01:52:23;;;;;;;5.40;4.60;;;;;;;9.53;100.00;99536.83;108252;1250;74609;-62
2024/03/30 01:54:50;;;;;;;4.60;4.20;;;;;;;9.48;100.00;99538.06;108475;1250;70048;-62
2024/03/30 01:57:19;;;;;;;6.00;4.60;;;;;;;9.38;100.00;99538.30;108445;1250;72669;-62
2024/03/30 01:59:47;;;;;;;5.20;4.30;;;;;;;9.31;100.00;99541.35;108341;1250;60120;-62
2024/03/30 02:02:14;;;;;;;4.70;4.20;;;;;;;9.18;100.00;99540.14;108501;1251;60387;-62
2024/03/30 02:04:42;;;;;;;4.70;4.30;;;;;;;9.10;100.00;99538.30;108370;1250;74428;-63
2024/03/30 02:07:11;;;;;;;5.70;4.30;;;;;;;9.09;100.00;99538.89;108514;1250;69602;-63
2024/03/30 02:09:38;;;;;;;5.20;4.70;;;;;;;9.34;100.00;99535.29;108324;1250;72349;-62
2024/03/30 02:12:06;;;;;;;5.40;4.70;;;;;;;9.45;100.00;99533.64;108341;1250;60653;-62
2024/03/30 02:14:34;;;;;;;;;;;;;;;9.56;100.00;99538.98;108302;1250;59709;-62
2024/03/30 02:17:01;;;;;;;7.60;4.60;;;;;;;9.45;100.00;99539.59;108236;1250;74495;-63
2024/03/30 02:19:30;;;;;;;5.10;4.40;;;;;;;9.40;100.00;99533.16;108434;1253;69079;-62
2024/03/30 02:21:57;;;;;;;4.40;3.90;;;;;;;9.38;100.00;99534.60;108278;1252;72484;-62
2024/03/30 02:24:24;;;;;;;4.30;3.90;;;;;;;9.37;100.00;99533.63;108421;1250;59715;-62
2024/03/30 02:26:52;;;;;;;4.10;3.70;;;;;;;9.28;100.00;99535.17;108483;1250;60070;-61
2024/03/30 02:29:20;;;;;;;6.90;3.90;;;;;;;9.41;100.00;99534.14;108424;1250;73342;-62
2024/03/30 02:31:47;;;;;;;4.50;4.10;;;;;;;9.41;100.00;99537.84;108477;1250;69665;-62
2024/03/30 02:34:14;;;;;;;6.00;5.10;;;;;;;9.40;100.00;99544.16;108217;1252;72469;-63
2024/03/30 02:36:42;;;;;;;4.30;3.90;;;;;;;9.39;100.00;99540.38;108469;1252;61452;-62
2024/03/30 02:39:09;;;;;;;4.40;4.00;;;;;;;9.36;100.00;99539.45;108430;1252;59289;-63
2024/03/30 02:41:37;;;;;;;8.60;5.90;;;;;;;9.29;100.00;99538.46;108442;1250;74879;-63
2024/03/30 02:44:05;;;;;;;;;;;;;;;9.26;100.00;99543.50;108515;1250;70553;-62
2024/03/30 02:46:32;;;;;;;9.30;6.60;;;;;;;9.29;100.00;99538.45;108464;1251;72755;-62
2024/03/30 02:49:00;;;;;;;20.80;10.90;;;;;;;9.53;100.00;99535.96;108369;1250;61294;-62
2024/03/30 02:51:27;;;;;;;12.80;7.40;;;;;;;9.52;100.00;99537.91;108472;1250;59751;-62
2024/03/30 02:53:55;;;;;;;8.70;6.50;;;;;;;9.45;100.00;99540.64;108413;1252;74813;-62
2024/03/30 02:56:22;;;;;;;6.90;5.20;;;;;;;9.41;100.00;99544.46;108495;1251;69185;-62
2024/03/30 02:58:50;;;;;;;5.30;4.60;;;;;;;9.42;100.00;99541.65;108472;1250;73342;-62
2024/03/30 03:01:17;;;;;;;4.50;4.10;;;;;;;9.41;100.00;99546.40;108452;1252;60696;-62
2024/03/30 03:03:45;;;;;;;4.10;3.80;;;;;;;9.46;100.00;99545.67;108424;1251;60064;-62
2024/03/30 03:06:12;;;;;;;4.10;3.80;;;;;;;9.58;100.00;99551.48;108475;1251;73293;-65
2024/03/30 03:08:40;;;;;;;4.30;3.80;;;;;;;9.61;100.00;99554.02;108448;1250;69862;-63
2024/03/30 03:11:07;;;;;;;4.00;3.60;;;;;;;9.59;100.00;99556.20;108456;1251;73367;-63
2024/03/30 03:13:35;;;;;;;6.10;4.20;;;;;;;9.42;100.00;99538.31;108489;1250;60661;-62
2024/03/30 03:16:04;;;;;;;7.30;4.10;;;;;;;9.51;100.00;99550.89;108446;1251;60521;-62
2024/03/30 03:18:32;;;;;;;3.60;3.20;;;;;;;9.62;100.00;99552.55;108438;1250;74865;-62
2024/03/30 03:20:59;;;;;;;4.20;3.80;;;;;;;9.61;100.00;99551.73;108489;1251;69632;-62
2024/03/30 03:23:30;;;;;;;3.90;3.60;;;;;;;9.62;100.00;99557.46;108437;1252;73455;-63
2024/03/30 03:25:58;;;;;;;3.80;3.50;;;;;;;9.55;100.00;99563.55;108514;1250;60690;-62
2024/03/30 03:28:26;;;;;;;4.10;3.70;;;;;;;9.47;100.00;99563.34;108441;1250;60060;-62
2024/03/30 03:30:53;;;;;;;4.60;3.60;;;;;;;9.47;100.00;99560.52;108438;1250;74417;-62
2024/03/30 03:33:21;;;;;;;4.00;3.60;;;;;;;9.45;100.00;99554.81;108436;1250;69637;-62
2024/03/30 03:35:48;;;;;;;4.30;4.00;;;;;;;9.47;100.00;99554.38;108430;1250;73335;-63
2024/03/30 03:38:16;;;;;;;4.40;4.00;;;;;;;9.47;100.00;99559.27;108507;1250;60697;-63
2024/03/30 03:40:43;;;;;;;4.60;4.00;;;;;;;9.44;100.00;99556.07;108491;1250;59764;-63
2024/03/30 03:43:11;;;;;;;3.90;3.60;;;;;;;9.40;100.00;99556.08;108445;1250;74464;-63
2024/03/30 03:45:44;;;;;;;4.70;4.20;;;;;;;9.40;100.00;99557.81;108467;1250;69644;-63
2024/03/30 03:48:11;;;;;;;4.30;3.90;;;;;;;9.42;100.00;99561.25;108423;1250;72941;-63
2024/03/30 03:50:40;;;;;;;4.80;4.40;;;;;;;9.38;100.00;99565.92;108481;1250;60981;-63
2024/03/30 03:53:07;;;;;;;3.70;3.30;;;;;;;9.27;100.00;99560.42;108414;1252;59801;-63
2024/03/30 03:55:35;;;;;;;;;;;;;;;9.31;100.00;99555.20;108443;1250;75296;-63
2024/03/30 03:58:03;;;;;;;4.40;3.70;;;;;;;9.34;100.00;99557.70;108402;1250;68377;-63
2024/03/30 04:00:31;;;;;;;4.30;3.90;;;;;;;9.35;100.00;99559.41;108460;1250;73470;-62
2024/03/30 04:02:58;;;;;;;4.70;4.30;;;;;;;9.33;100.00;99559.30;108194;1251;61177;-63
2024/03/30 04:05:26;;;;;;;4.70;4.20;;;;;;;9.33;100.00;99555.11;108516;1250;60731;-63
2024/03/30 04:07:53;;;;;;;4.60;4.20;;;;;;;9.33;100.00;99559.14;108499;1250;74303;-64
2024/03/30 04:10:21;;;;;;;;;;;;;;;9.30;100.00;99561.89;108457;1250;70037;-61
2024/03/30 04:12:48;;;;;;;5.70;4.00;;;;;;;9.28;100.00;99565.10;108469;1250;73458;-63
2024/03/30 04:15:16;;;;;;;4.10;3.80;;;;;;;9.30;100.00;99565.72;108322;1250;60540;-63
2024/03/30 04:17:44;;;;;;;4.10;3.80;;;;;;;9.34;100.00;99558.58;108517;1253;59932;-62
2024/03/30 04:20:12;;;;;;;5.50;3.90;;;;;;;9.37;100.00;99564.05;108461;1251;74547;-63
2024/03/30 04:22:39;;;;;;;3.90;3.60;;;;;;;9.42;100.00;99559.85;108504;1251;69669;-62
2024/03/30 04:25:07;;;;;;;5.50;4.10;;;;;;;9.46;100.00;99560.38;108504;1251;71040;-62
2024/03/30 04:27:35;;;;;;;4.90;4.40;;;;;;;9.49;100.00;99556.21;108517;1251;60626;-63
2024/03/30 04:30:04;;;;;;;4.30;3.90;;;;;;;9.54;100.00;99558.48;108486;1251;59685;-62
2024/03/30 04:32:31;;;;;;;5.00;4.20;;;;;;;9.62;100.00;99561.34;108544;1251;74377;-62
2024/03/30 04:34:59;;;;;;;4.50;3.60;;;;;;;9.64;100.00;99569.61;108481;1251;70239;-62
2024/03/30 04:37:27;;;;;;;;;;;;;;;9.68;100.00;99571.41;108497;1251;72516;-64
2024/03/30 04:39:54;;;;;;;;;;;;;;;9.71;100.00;99573.54;108559;1251;61662;-65
2024/03/30 04:42:22;;;;;;;3.80;3.40;;;;;;;9.77;100.00;99575.23;108495;1251;59979;-61
2024/03/30 04:44:50;;;;;;;4.70;4.30;;;;;;;9.88;100.00;99574.08;108468;1251;74444;-62
2024/03/30 04:47:17;;;;;;;4.00;3.60;;;;;;;9.92;100.00;99576.20;108547;1254;69123;-63
2024/03/30 04:49:44;;;;;;;4.00;3.60;;;;;;;9.93;100.00;99579.83;108542;1251;72423;-62
2024/03/30 04:52:12;;;;;;;4.50;4.10;;;;;;;9.96;100.00;99585.66;108505;1250;60614;-63
2024/03/30 04:54:39;;;;;;;4.20;3.90;;;;;;;9.99;100.00;99588.19;108553;1251;59871;-62
2024/03/30 04:57:07;;;;;;;5.90;4.10;;;;;;;9.98;100.00;99590.67;108491;1251;73487;-62
2024/03/30 04:59:35;;;;;;;;;;;;;;;10.03;100.00;99588.02;108464;1251;69108;-63
2024/03/30 05:02:02;;;;;;;;;;;;;;;10.06;100.00;99589.97;108539;1251;72360;-61
2024/03/30 05:04:30;;;;;;;4.40;4.00;;;;;;;10.09;100.00;99584.59;108377;1253;59980;-62
2024/03/30 05:06:58;;;;;;;5.80;4.30;;;;;;;10.26;100.00;99594.43;108475;1251;60779;-61
2024/03/30 05:09:25;;;;;;;5.80;4.10;;;;;;;10.13;100.00;99595.81;108531;1253;74353;-61
2024/03/30 05:11:53;;;;;;;4.70;4.10;;;;;;;10.25;100.00;99598.14;108209;1251;68421;-61
2024/03/30 05:14:20;;;;;;;6.10;4.40;;;;;;;10.22;100.00;99600.89;108424;1251;75147;-61
2024/03/30 05:16:48;;;;;;;5.70;3.90;;;;;;;10.34;100.00;99600.42;108462;1251;60654;-61
2024/03/30 05:22:01;;;;;;;3.60;3.30;;;;;;;10.54;100.00;99608.86;108396;1252;74525;-63
2024/03/30 05:24:29;;;;;;;;;;;;;;;10.60;100.00;99613.12;108326;1250;71742;-61
2024/03/30 05:26:57;;;;;;;3.80;3.50;;;;;;;10.60;100.00;99598.59;108438;1252;73529;-64
2024/03/30 05:29:25;;;;;;;3.70;3.40;;;;;;;10.73;100.00;99615.73;108418;1250;60583;-64
2024/03/30 05:31:52;;;;;;;5.50;3.90;;;;;;;10.78;100.00;99615.67;108033;1253;60368;-63
2024/03/30 05:34:20;;;;;;;3.50;3.20;;;;;;;10.89;100.00;99617.14;108420;1250;73501;-62
2024/03/30 05:36:48;;;;;;;3.50;3.20;;;;;;;11.04;100.00;99614.71;108443;1250;69171;-61
2024/03/30 05:39:16;;;;;;;4.60;3.20;;;;;;;11.19;100.00;99619.82;108430;1253;72336;-64
2024/03/30 05:41:43;;;;;;;4.10;3.10;;;;;;;11.25;100.00;99623.07;108432;1250;60573;-62
2024/03/30 05:44:11;;;;;;;4.30;3.40;;;;;;;11.30;100.00;99617.04;108027;1252;60339;-62
2024/03/30 05:46:39;;;;;;;4.60;3.60;;;;;;;11.38;100.00;99615.30;108398;1252;74449;-64
2024/03/30 05:49:06;;;;;;;3.60;3.20;;;;;;;11.47;100.00;99614.50;108443;1250;70136;-60
2024/03/30 05:51:34;;;;;;;4.00;3.00;;;;;;;11.53;100.00;99618.11;108371;1253;73298;-61
2024/03/30 05:54:02;;;;;;;4.20;3.60;;;;;;;11.50;100.00;99619.96;107951;1252;60733;-61
2024/03/30 05:56:29;;;;;;;;;;;;;;;11.55;100.00;99622.02;108291;1250;60956;-61
2024/03/30 06:02:09;;;;;;;3.40;3.10;;;;;;;11.70;100.00;99619.04;101378;1295;601455;-64
2024/03/30 06:04:37;;;;;;;3.10;2.80;;;;;;;11.75;100.00;99620.71;103805;1267;61650;-61
2024/03/30 06:07:08;;;;;;;4.00;3.10;;;;;;;11.84;100.00;99622.22;104079;1265;60648;-61
2024/03/30 06:09:36;;;;;;;3.40;3.10;;;;;;;11.94;100.00;99619.31;103618;1272;73365;-61
2024/03/30 06:12:03;;;;;;;;;;;;;;;12.00;100.00;99620.80;103520;1273;69503;-61
2024/03/30 06:14:31;;;;;;;;;;;;;;;12.08;100.00;99622.70;103735;1275;72509;-62
2024/03/30 06:16:59;;;;;;;3.40;2.70;;;;;;;12.15;100.00;99621.98;103132;1264;762127;-64
2024/03/30 06:19:26;;;;;;;2.80;2.50;;;;;;;12.22;100.00;99626.73;104222;1264;60113;-60
2024/03/30 06:21:54;;;;;;;3.30;2.40;;;;;;;12.27;100.00;99626.66;104089;1271;73259;-62
2024/03/30 06:24:21;;;;;;;3.20;2.00;;;;;;;12.32;100.00;99624.14;104224;1264;69397;-62
2024/03/30 06:26:49;;;;;;;4.20;1.90;;;;;;;12.38;100.00;99623.46;103933;1264;71407;-61
2024/03/30 06:29:17;;;;;;;4.90;2.70;;;;;;;12.46;100.00;99623.91;104553;1263;61802;-62
2024/03/30 06:31:45;;;;;;;2.60;2.20;;;;;;;12.51;100.00;99622.96;104104;1263;60552;-63
2024/03/30 06:36:35;;;;;;;2.40;2.10;;;;;;;12.13;100.00;99626.45;101575;1293;601796;-65
2024/03/30 06:39:03;;;;;;;3.60;2.40;;;;;;;12.57;100.00;99626.20;103974;1268;61451;-64
2024/03/30 06:44:18;;;;;;;1.90;1.60;;;;;;;12.66;100.00;99619.23;103583;1272;72659;-64
2024/03/30 06:46:46;;;;;;;2.10;1.90;;;;;;;12.76;100.00;99620.29;104286;1269;68050;-60
2024/03/30 06:49:14;;;;;;;2.00;1.80;;;;;;;12.83;100.00;99617.27;103071;1279;859292;-63
2024/03/30 06:51:41;;;;;;;1.90;1.80;;;;;;;12.91;100.00;99617.94;104951;1254;62353;-61
2024/03/30 06:54:09;;;;;;;2.80;1.50;;;;;;;12.90;100.00;99612.84;104379;1260;60641;-62
2024/03/30 06:56:37;;;;;;;2.60;2.10;;;;;;;13.05;100.00;99612.93;105060;1260;72806;-60
2024/03/30 06:59:04;;;;;;;2.20;2.00;;;;;;;13.14;100.00;99614.59;105241;1252;68212;-61
2024/03/30 07:01:32;;;;;;;2.00;1.90;;;;;;;13.21;100.00;99610.70;105402;1256;73349;-61
2024/03/30 07:04:02;;;;;;;2.80;2.50;;;;;;;13.31;100.00;99607.36;104664;1254;61468;-64
2024/03/30 07:06:30;;;;;;;2.30;2.10;;;;;;;13.44;100.00;99604.70;104983;1266;59749;-61
2024/03/30 07:08:58;;;;;;;2.50;2.20;;;;;;;13.58;100.00;99605.52;104947;1253;74173;-60
2024/03/30 07:11:27;;;;;;;2.50;1.90;;;;;;;13.62;100.00;99600.35;104614;1262;69120;-67
2024/03/30 07:13:55;;;;;;;4.20;2.10;;;;;;;13.57;100.00;99599.40;105056;1254;72989;-62
2024/03/30 07:16:22;;;;;;;1.90;1.60;;;;;;;13.63;100.00;99605.92;104939;1257;64900;-61
2024/03/30 07:18:50;;;;;;;3.90;1.90;;;;;;;13.78;100.00;99603.89;104959;1257;60508;-60
2024/03/30 07:21:17;;;;;;;3.40;2.00;;;;;;;13.87;99.91;99601.08;105122;1257;73690;-61
2024/03/30 07:23:45;;;;;;;3.10;1.40;;;;;;;13.90;98.02;99597.40;105274;1251;68214;-61
2024/03/30 07:26:13;;;;;;;2.80;1.50;;;;;;;14.02;99.13;99594.95;105433;1256;72600;-61
2024/03/30 07:28:40;;;;;;;1.70;1.60;;;;;;;14.57;93.00;99589.19;104454;1256;61826;-63
2024/03/30 07:31:09;;;;;;;;;;;;;;;14.94;85.95;99589.63;105513;1257;60446;-63
2024/03/30 07:33:37;;;;;;;2.00;1.80;;;;;;;14.63;85.89;99585.88;104939;1254;73665;-61
2024/03/30 07:36:05;;;;;;;1.70;1.50;;;;;;;14.54;91.07;99580.92;104937;1259;68603;-62
2024/03/30 07:38:35;;;;;;;2.10;1.70;;;;;;;14.61;91.71;99580.02;105019;1257;72964;-61
2024/03/30 07:41:02;;;;;;;2.10;1.90;;;;;;;14.71;91.80;99576.23;104884;1256;61386;-63
2024/03/30 07:43:30;;;;;;;2.90;1.60;;;;;;;14.84;90.78;99572.99;104649;1257;60462;-61
2024/03/30 07:46:02;;;;;;;1.70;1.50;;;;;;;14.96;87.80;99577.73;104300;1265;74594;-62
2024/03/30 07:48:30;;;;;;;1.40;1.30;;;;;;;15.07;88.12;99577.04;105072;1257;69411;-61
2024/03/30 07:50:58;;;;;;;2.20;1.60;;;;;;;15.14;85.44;99569.00;104583;1255;72405;-61
2024/03/30 07:53:27;;;;;;;1.30;1.20;;;;;;;15.24;81.46;99573.02;104774;1254;60682;-61
2024/03/30 07:55:55;;;;;;;1.80;1.40;;;;;;;15.35;80.78;99570.52;104742;1257;60485;-61
2024/03/30 07:58:23;;;;;;;1.40;1.30;;;;;;;15.39;80.89;99558.10;105413;1265;76215;-62
2024/03/30 08:00:50;;;;;;;1.90;1.30;;;;;;;15.59;80.86;99567.06;105046;1257;70165;-62
2024/03/30 08:03:18;;;;;;;2.00;1.50;;;;;;;15.74;78.58;99572.82;105200;1254;73005;-63
2024/03/30 08:05:54;;;;;;;1.70;1.10;;;;;;;15.79;77.07;99570.56;104729;1257;61401;-61
2024/03/30 08:08:23;;;;;;;2.20;1.50;;;;;;;15.88;76.43;99569.02;105248;1257;60562;-67
2024/03/30 18:53:38;;;;;;;4.70;3.20;;;;;;;17.18;68.83;99368.70;101201;1295;617121;-68
2024/03/30 18:56:08;;;;;;;7.40;3.10;;;;;;;17.47;65.55;99367.78;103653;1272;61146;-69
2024/03/30 18:58:36;;;;;;;5.20;3.50;;;;;;;17.42;65.42;99368.52;103798;1270;60693;-66
2024/03/30 19:01:08;;;;;;;6.50;4.30;;;;;;;17.36;65.46;99367.59;104117;1266;74496;-67
2024/03/30 19:03:36;;;;;;;4.70;3.70;;;;;;;17.34;65.76;99370.79;103399;1273;69553;-61
2024/03/30 19:06:04;;;;;;;7.00;3.90;;;;;;;17.31;65.53;99369.73;102764;1265;1846998;-60
2024/03/30 19:08:31;;;;;;;6.60;3.50;;;;;;;17.28;65.71;99370.11;103815;1264;60484;-72
2024/03/30 19:11:03;;;;;;;6.80;4.60;;;;;;;17.25;65.83;99370.37;104081;1269;60177;-68
2024/03/30 19:13:30;;;;;;;4.40;3.60;;;;;;;17.21;66.17;99371.59;104754;1264;73309;-67
2024/03/30 19:15:58;;;;;;;5.60;3.70;;;;;;;17.19;66.27;99370.99;103772;1263;70183;-67
2024/03/30 19:18:25;;;;;;;6.30;3.90;;;;;;;17.17;66.57;99370.64;103532;1270;72613;-61
2024/03/30 19:20:52;;;;;;;8.40;3.60;;;;;;;17.10;66.92;99368.64;103988;1267;60571;-60
2024/03/30 19:23:19;;;;;;;3.90;3.20;;;;;;;17.08;67.18;99370.02;104766;1264;61938;-55
2024/03/30 19:25:47;;;;;;;5.20;3.50;;;;;;;16.94;67.72;99353.68;104361;1267;75503;-57
2024/03/30 19:28:15;;;;;;;;;;;;;;;17.01;67.93;99365.91;104224;1264;70447;-56
2024/03/30 19:30:51;;;;;;;4.00;3.00;;;;;;;17.00;68.30;99365.81;104316;1270;71720;-56
2024/03/30 19:33:18;;;;;;;5.40;3.40;;;;;;;16.99;68.19;99370.36;103823;1264;60577;-59
2024/03/30 19:35:55;;;;;;;8.20;4.20;;;;;;;16.95;68.40;99369.17;103780;1266;60472;-56
2024/03/30 19:38:23;;;;;;;5.20;3.40;;;;;;;16.91;69.19;99363.62;103895;1264;72359;-56
2024/03/30 19:40:50;;;;;;;4.40;3.10;;;;;;;16.89;69.38;99365.58;104326;1272;69646;-59
2024/03/30 19:43:18;;;;;;;4.20;3.20;;;;;;;16.86;69.62;99367.04;104299;1264;72579;-56
2024/03/30 19:45:45;;;;;;;10.20;3.50;;;;;;;16.81;70.01;99372.31;104675;1259;60593;-57
2024/03/30 19:48:12;;;;;;;5.50;3.50;;;;;;;16.78;70.68;99373.05;104864;1262;60501;-57
2024/03/30 19:50:39;;;;;;;7.10;3.60;;;;;;;16.74;71.02;99373.00;104156;1259;73800;-56
2024/03/30 19:53:07;;;;;;;9.10;3.40;;;;;;;16.71;71.14;99369.45;105035;1256;69617;-56
2024/03/30 19:55:34;;;;;;;8.10;4.20;;;;;;;16.69;72.07;99373.38;104696;1257;73128;-58
2024/03/30 19:58:01;;;;;;;5.70;3.50;;;;;;;16.66;72.67;99377.42;104541;1257;60620;-57
2024/03/30 20:00:29;;;;;;;5.60;3.60;;;;;;;16.64;72.88;99376.41;104465;1257;60522;-57
2024/03/30 20:02:56;;;;;;;6.10;4.00;;;;;;;16.62;73.06;99375.10;104754;1262;73801;-57
2024/03/30 20:05:26;;;;;;;6.40;3.70;;;;;;;16.60;73.55;99375.06;104398;1261;70806;-55
2024/03/30 20:07:53;;;;;;;6.50;3.30;;;;;;;16.58;74.04;99378.73;103843;1266;74107;-56
2024/03/30 20:10:22;;;;;;;8.90;3.50;;;;;;;16.54;74.33;99380.83;104843;1257;61579;-56
2024/03/30 20:12:49;;;;;;;7.60;3.90;;;;;;;16.49;74.94;99380.80;104124;1264;60457;-59
2024/03/30 20:15:17;;;;;;;4.90;3.40;;;;;;;16.46;75.89;99377.52;104566;1257;74275;-58
2024/03/30 20:17:45;;;;;;;5.10;3.80;;;;;;;16.42;76.36;99381.85;104124;1262;69861;-57
2024/03/30 20:20:13;;;;;;;5.60;3.40;;;;;;;16.39;77.34;99385.80;103883;1273;74097;-56
2024/03/30 20:22:41;;;;;;;6.60;3.10;;;;;;;16.35;77.59;99381.29;104660;1271;59936;-56
2024/03/30 20:25:10;;;;;;;4.60;3.90;;;;;;;16.34;77.82;99387.56;104279;1264;60559;-56
2024/03/30 20:27:38;;;;;;;5.50;3.00;;;;;;;16.31;78.23;99390.02;104612;1260;73841;-56
2024/03/30 20:30:06;;;;;;;8.20;3.20;;;;;;;16.24;79.25;99391.09;104468;1259;69717;-57
2024/03/30 20:32:34;;;;;;;6.20;2.90;;;;;;;16.12;80.51;99390.80;104813;1259;72705;-59
2024/03/30 20:35:03;;;;;;;5.60;3.10;;;;;;;16.15;81.08;99393.45;104831;1259;60549;-58
2024/03/30 20:37:30;;;;;;;6.80;3.00;;;;;;;16.09;81.87;99392.66;104733;1259;60477;-56
2024/03/30 20:39:57;;;;;;;7.30;3.20;;;;;;;16.05;82.44;99392.23;104648;1255;73641;-56
2024/03/30 20:42:24;;;;;;;7.10;3.00;;;;;;;16.01;83.32;99395.84;104716;1260;69982;-56
2024/03/30 20:44:51;;;;;;;7.30;4.00;;;;;;;15.97;83.59;99394.69;104406;1259;73358;-56
2024/03/30 20:47:19;;;;;;;4.50;3.20;;;;;;;15.90;84.97;99395.52;104550;1254;60554;-56
2024/03/30 20:49:46;;;;;;;4.50;2.90;;;;;;;15.84;86.18;99396.28;104419;1255;60478;-57
2024/03/30 20:52:13;;;;;;;5.50;3.30;;;;;;;15.78;87.04;99393.16;104664;1257;72988;-56
2024/03/30 20:54:40;;;;;;;5.50;2.90;;;;;;;15.77;87.75;99394.65;104277;1261;69560;-56
2024/03/30 20:59:52;;;;;;;4.90;2.70;;;;;;;15.54;94.03;99393.89;102812;1292;601314;-57
2024/03/30 21:02:20;;;;;;;4.60;2.80;;;;;;;15.86;88.51;99391.55;104201;1266;59860;-57
2024/03/30 21:04:48;;;;;;;4.20;3.00;;;;;;;15.87;87.90;99392.95;103873;1270;60294;-58
2024/03/30 21:07:16;;;;;;;6.60;3.50;;;;;;;15.86;88.18;99389.62;104243;1270;73288;-58
2024/03/30 21:09:43;;;;;;;6.80;3.50;;;;;;;15.86;88.68;99392.98;103776;1270;70299;-57
2024/03/30 21:12:11;;;;;;;6.00;3.20;;;;;;;15.80;89.22;99390.21;104404;1257;75414;-58
2024/03/30 21:14:38;;;;;;;5.50;3.40;;;;;;;15.76;89.86;99390.46;103828;1253;1090143;-58
2024/03/30 21:17:06;;;;;;;;;;;;;;;15.71;90.55;99387.42;104470;1269;60119;-58
2024/03/30 21:19:34;;;;;;;;;;;;;;;15.67;92.06;99388.46;104551;1254;73685;-58
2024/03/30 21:28:21;;;;;;;3.80;3.00;;;;;;;14.40;100.00;99392.01;102648;1291;601797;-56
2024/03/30 21:34:53;;;;;;;5.70;3.00;;;;;;;14.36;100.00;99397.19;102592;1292;601814;-56
2024/03/30 21:37:25;;;;;;;6.00;3.30;;;;;;;14.93;100.00;99401.95;104269;1266;62536;-56
2024/03/30 21:39:53;;;;;;;4.90;3.20;;;;;;;15.01;100.00;99405.16;103732;1266;62200;-57
2024/03/30 21:42:21;;;;;;;6.60;3.10;;;;;;;15.05;100.00;99403.30;103672;1270;72562;-58
2024/03/30 21:44:49;;;;;;;3.40;2.40;;;;;;;15.09;100.00;99401.64;103721;1266;70532;-55
2024/03/30 21:47:17;;;;;;;6.40;3.10;;;;;;;15.06;100.00;99406.42;104270;1256;72173;-57
2024/03/30 21:49:45;;;;;;;6.40;3.10;;;;;;;15.08;100.00;99404.70;104089;1258;62091;-55
2024/03/30 21:52:13;;;;;;;6.70;3.20;;;;;;;15.05;100.00;99406.87;104506;1269;59798;-57
2024/03/30 21:54:41;;;;;;;4.80;3.10;;;;;;;14.99;100.00;99405.83;104575;1254;73235;-56
2024/03/30 21:57:08;;;;;;;6.70;2.90;;;;;;;14.95;100.00;99407.46;104404;1257;70168;-57
2024/03/30 21:59:36;;;;;;;4.00;2.70;;;;;;;14.85;100.00;99409.73;104755;1259;72685;-57
2024/03/30 22:02:03;;;;;;;4.70;2.80;;;;;;;14.79;100.00;99409.40;104289;1254;61422;-56
2024/03/30 22:04:31;;;;;;;9.10;3.00;;;;;;;14.77;100.00;99414.95;104578;1258;60459;-57
2024/03/30 22:06:59;;;;;;;7.40;3.60;;;;;;;14.77;100.00;99412.30;104468;1259;74463;-57
2024/03/30 22:09:26;;;;;;;8.40;3.20;;;;;;;14.73;100.00;99413.48;104770;1257;69188;-57
2024/03/30 22:11:54;;;;;;;5.40;3.40;;;;;;;14.70;100.00;99420.16;104542;1271;72937;-56
2024/03/30 22:14:24;;;;;;;6.70;3.70;;;;;;;14.70;100.00;99421.97;104408;1257;61681;-57
2024/03/30 22:16:52;;;;;;;7.20;3.40;;;;;;;14.66;100.00;99422.20;104459;1254;60623;-57
2024/03/30 22:19:19;;;;;;;6.80;3.20;;;;;;;14.57;100.00;99426.64;104444;1269;74002;-56
2024/03/30 22:21:47;;;;;;;6.50;3.10;;;;;;;14.51;100.00;99429.63;104354;1260;69082;-57
2024/03/30 22:24:14;;;;;;;5.40;3.40;;;;;;;14.49;100.00;99426.45;104513;1254;72506;-58
2024/03/30 22:26:42;;;;;;;5.70;3.00;;;;;;;14.48;100.00;99428.06;104344;1254;61500;-57
2024/03/30 22:29:10;;;;;;;;;;;;;;;14.48;100.00;99429.65;104552;1257;60501;-57
2024/03/30 22:31:37;;;;;;;;;;;;;;;14.44;100.00;99429.75;104571;1260;73656;-56
2024/03/30 22:34:04;;;;;;;5.30;2.80;;;;;;;14.32;100.00;99427.06;104449;1254;69128;-56
2024/03/30 22:36:32;;;;;;;5.60;2.70;;;;;;;14.33;100.00;99431.44;104509;1258;72994;-56